sensor_id;sensor_type;location;lat;lon;timestamp;pressure;altitude;pressure_sealevel;temperature;humidity
79230;BME280;68663;49.122;17.544;2023-07-24T00:00:35;98851.22;;;26.85;46.11
79230;BME280;68663;49.122;17.544;2023-07-24T00:03:02;98852.47;;;26.84;46.24
79230;BME280;68663;49.122;17.544;2023-07-24T00:05:27;98858.16;;;26.84;46.26
79230;BME280;68663;49.122;17.544;2023-07-24T00:07:52;98861.44;;;26.83;46.47
79230;BME280;68663;49.122;17.544;2023-07-24T00:10:18;98857.81;;;26.82;46.46
79230;BME280;68663;49.122;17.544;2023-07-24T00:12:43;98853.41;;;26.81;46.08
79230;BME280;68663;49.122;17.544;2023-07-24T00:15:09;98852.59;;;26.81;45.79
79230;BME280;68663;49.122;17.544;2023-07-24T00:17:35;98854.97;;;26.82;45.70
79230;BME280;68663;49.122;17.544;2023-07-24T00:20:00;98855.78;;;26.83;45.69
79230;BME280;68663;49.122;17.544;2023-07-24T00:22:25;98855.78;;;26.83;45.72
79230;BME280;68663;49.122;17.544;2023-07-24T00:24:51;98854.53;;;26.84;45.89
79230;BME280;68663;49.122;17.544;2023-07-24T00:27:16;98856.56;;;26.83;45.63
79230;BME280;68663;49.122;17.544;2023-07-24T00:29:42;98852.94;;;26.83;45.85
79230;BME280;68663;49.122;17.544;2023-07-24T00:32:08;98846.81;;;26.84;45.67
79230;BME280;68663;49.122;17.544;2023-07-24T00:34:33;98848.84;;;26.84;45.81
79230;BME280;68663;49.122;17.544;2023-07-24T00:36:58;98840.34;;;26.84;45.62
79230;BME280;68663;49.122;17.544;2023-07-24T00:39:24;98841.13;;;26.84;45.91
79230;BME280;68663;49.122;17.544;2023-07-24T00:41:53;98845.22;;;26.83;45.71
79230;BME280;68663;49.122;17.544;2023-07-24T00:44:19;98840.34;;;26.84;45.64
79230;BME280;68663;49.122;17.544;2023-07-24T00:46:44;98841.13;;;26.84;45.65
79230;BME280;68663;49.122;17.544;2023-07-24T00:49:10;98840.34;;;26.84;46.10
79230;BME280;68663;49.122;17.544;2023-07-24T00:51:35;98836.38;;;26.81;46.36
79230;BME280;68663;49.122;17.544;2023-07-24T00:54:02;98834.78;;;26.80;46.39
79230;BME280;68663;49.122;17.544;2023-07-24T00:56:30;98831.16;;;26.80;46.48
79230;BME280;68663;49.122;17.544;2023-07-24T00:58:56;98837.31;;;26.78;46.71
79230;BME280;68663;49.122;17.544;2023-07-24T01:01:22;98831.63;;;26.78;46.61
79230;BME280;68663;49.122;17.544;2023-07-24T01:03:48;98841.84;;;26.76;45.75
79230;BME280;68663;49.122;17.544;2023-07-24T01:06:14;98841.41;;;26.77;46.24
79230;BME280;68663;49.122;17.544;2023-07-24T01:08:39;98838.56;;;26.77;46.09
79230;BME280;68663;49.122;17.544;2023-07-24T01:11:24;98830.06;;;26.77;45.85
79230;BME280;68663;49.122;17.544;2023-07-24T01:14:16;98835.72;;;26.77;45.96
79230;BME280;68663;49.122;17.544;2023-07-24T01:16:42;98834.47;;;26.78;45.74
79230;BME280;68663;49.122;17.544;2023-07-24T01:19:42;98840.16;;;26.78;45.99
79230;BME280;68663;49.122;17.544;2023-07-24T01:25:05;98844.56;;;26.79;45.82
79230;BME280;68663;49.122;17.544;2023-07-24T01:27:33;98848.19;;;26.80;45.79
79230;BME280;68663;49.122;17.544;2023-07-24T01:29:59;98838.88;;;26.79;46.05
79230;BME280;68663;49.122;17.544;2023-07-24T01:32:24;98838.88;;;26.79;46.02
79230;BME280;68663;49.122;17.544;2023-07-24T01:34:51;98843.78;;;26.79;46.11
79230;BME280;68663;49.122;17.544;2023-07-24T01:37:17;98834.00;;;26.80;46.11
79230;BME280;68663;49.122;17.544;2023-07-24T01:39:45;98833.22;;;26.79;46.20
79230;BME280;68663;49.122;17.544;2023-07-24T01:42:11;98835.72;;;26.77;46.22
79230;BME280;68663;49.122;17.544;2023-07-24T01:44:37;98834.13;;;26.76;46.53
79230;BME280;68663;49.122;17.544;2023-07-24T01:47:02;98831.31;;;26.76;46.64
79230;BME280;68663;49.122;17.544;2023-07-24T01:49:28;98834.13;;;26.76;47.16
79230;BME280;68663;49.122;17.544;2023-07-24T01:51:53;98824.06;;;26.75;47.00
79230;BME280;68663;49.122;17.544;2023-07-24T01:54:19;98819.63;;;26.74;47.06
79230;BME280;68663;49.122;17.544;2023-07-24T01:56:44;98817.25;;;26.73;46.66
79230;BME280;68663;49.122;17.544;2023-07-24T01:59:10;98815.22;;;26.73;46.80
79230;BME280;68663;49.122;17.544;2023-07-24T02:01:35;98807.50;;;26.74;46.63
79230;BME280;68663;49.122;17.544;2023-07-24T02:04:01;98812.38;;;26.73;46.62
79230;BME280;68663;49.122;17.544;2023-07-24T02:06:27;98806.69;;;26.73;46.56
79230;BME280;68663;49.122;17.544;2023-07-24T02:08:52;98813.97;;;26.74;46.88
79230;BME280;68663;49.122;17.544;2023-07-24T02:11:18;98817.59;;;26.75;46.84
79230;BME280;68663;49.122;17.544;2023-07-24T02:13:44;98813.97;;;26.74;46.56
79230;BME280;68663;49.122;17.544;2023-07-24T02:16:13;98814.75;;;26.75;46.52
79230;BME280;68663;49.122;17.544;2023-07-24T02:18:41;98808.28;;;26.74;46.40
79230;BME280;68663;49.122;17.544;2023-07-24T02:21:06;98819.63;;;26.74;46.44
79230;BME280;68663;49.122;17.544;2023-07-24T02:23:32;98815.53;;;26.75;46.44
79230;BME280;68663;49.122;17.544;2023-07-24T02:25:57;98816.00;;;26.74;46.76
79230;BME280;68663;49.122;17.544;2023-07-24T02:28:22;98828.94;;;26.75;46.33
79230;BME280;68663;49.122;17.544;2023-07-24T02:30:48;98831.75;;;26.75;46.47
79230;BME280;68663;49.122;17.544;2023-07-24T02:33:14;98818.84;;;26.74;47.03
79230;BME280;68663;49.122;17.544;2023-07-24T02:35:40;98826.56;;;26.73;47.05
79230;BME280;68663;49.122;17.544;2023-07-24T02:38:06;98827.81;;;26.72;47.27
79230;BME280;68663;49.122;17.544;2023-07-24T02:40:31;98821.81;;;26.70;47.15
79230;BME280;68663;49.122;17.544;2023-07-24T02:42:57;98817.38;;;26.69;47.14
79230;BME280;68663;49.122;17.544;2023-07-24T02:45:22;98820.22;;;26.69;47.19
79230;BME280;68663;49.122;17.544;2023-07-24T02:47:48;98827.94;;;26.69;47.10
79230;BME280;68663;49.122;17.544;2023-07-24T02:50:13;98821.47;;;26.68;47.00
79230;BME280;68663;49.122;17.544;2023-07-24T02:52:38;98818.63;;;26.68;46.54
79230;BME280;68663;49.122;17.544;2023-07-24T02:55:04;98821.47;;;26.68;47.04
79230;BME280;68663;49.122;17.544;2023-07-24T02:57:29;98815.34;;;26.70;46.65
79230;BME280;68663;49.122;17.544;2023-07-24T02:59:55;98826.69;;;26.70;46.57
79230;BME280;68663;49.122;17.544;2023-07-24T03:02:21;98833.59;;;26.69;46.77
79230;BME280;68663;49.122;17.544;2023-07-24T03:04:46;98823.84;;;26.70;46.42
79230;BME280;68663;49.122;17.544;2023-07-24T03:07:12;98822.59;;;26.71;46.52
79230;BME280;68663;49.122;17.544;2023-07-24T03:09:37;98832.34;;;26.70;46.72
79230;BME280;68663;49.122;17.544;2023-07-24T03:12:03;98828.72;;;26.69;46.82
79230;BME280;68663;49.122;17.544;2023-07-24T03:14:28;98828.72;;;26.69;46.71
79230;BME280;68663;49.122;17.544;2023-07-24T03:16:54;98824.31;;;26.68;46.42
79230;BME280;68663;49.122;17.544;2023-07-24T03:19:19;98838.81;;;26.70;46.54
79230;BME280;68663;49.122;17.544;2023-07-24T03:21:45;98839.63;;;26.71;46.76
79230;BME280;68663;49.122;17.544;2023-07-24T03:24:11;98841.66;;;26.70;46.91
79230;BME280;68663;49.122;17.544;2023-07-24T03:26:36;98835.66;;;26.68;47.06
79230;BME280;68663;49.122;17.544;2023-07-24T03:29:02;98839.75;;;26.67;47.15
79230;BME280;68663;49.122;17.544;2023-07-24T03:31:27;98835.31;;;26.66;47.36
79230;BME280;68663;49.122;17.544;2023-07-24T03:33:53;98841.47;;;26.64;47.24
79230;BME280;68663;49.122;17.544;2023-07-24T03:36:18;98841.47;;;26.64;47.18
79230;BME280;68663;49.122;17.544;2023-07-24T03:38:43;98836.25;;;26.63;47.64
79230;BME280;68663;49.122;17.544;2023-07-24T03:41:09;98841.13;;;26.62;47.50
79230;BME280;68663;49.122;17.544;2023-07-24T03:43:34;98836.25;;;26.63;47.25
79230;BME280;68663;49.122;17.544;2023-07-24T03:45:59;98830.56;;;26.63;46.99
79230;BME280;68663;49.122;17.544;2023-07-24T03:48:25;98828.53;;;26.63;46.93
79230;BME280;68663;49.122;17.544;2023-07-24T03:50:57;98832.94;;;26.64;46.83
79230;BME280;68663;49.122;17.544;2023-07-24T03:53:23;98833.41;;;26.63;47.11
79230;BME280;68663;49.122;17.544;2023-07-24T03:55:49;98832.94;;;26.64;47.10
79230;BME280;68663;49.122;17.544;2023-07-24T03:58:14;98837.38;;;26.65;46.84
79230;BME280;68663;49.122;17.544;2023-07-24T04:00:40;98840.19;;;26.65;46.97
79230;BME280;68663;49.122;17.544;2023-07-24T04:03:05;98846.66;;;26.66;47.12
79230;BME280;68663;49.122;17.544;2023-07-24T04:05:31;98858.00;;;26.66;47.01
79230;BME280;68663;49.122;17.544;2023-07-24T04:07:56;98851.53;;;26.65;47.02
79230;BME280;68663;49.122;17.544;2023-07-24T04:10:22;98843.84;;;26.66;46.94
79230;BME280;68663;49.122;17.544;2023-07-24T04:12:47;98841.00;;;26.66;47.08
79230;BME280;68663;49.122;17.544;2023-07-24T04:15:12;98841.78;;;26.66;47.06
79230;BME280;68663;49.122;17.544;2023-07-24T04:17:38;98840.19;;;26.65;47.49
79230;BME280;68663;49.122;17.544;2023-07-24T04:20:06;98831.38;;;26.63;47.69
79230;BME280;68663;49.122;17.544;2023-07-24T04:22:31;98832.63;;;26.62;47.75
79230;BME280;68663;49.122;17.544;2023-07-24T04:24:57;98829.00;;;26.62;47.90
79230;BME280;68663;49.122;17.544;2023-07-24T04:27:22;98833.09;;;26.61;47.90
79230;BME280;68663;49.122;17.544;2023-07-24T04:29:48;98831.50;;;26.60;48.03
79230;BME280;68663;49.122;17.544;2023-07-24T04:32:13;98845.34;;;26.58;47.62
79230;BME280;68663;49.122;17.544;2023-07-24T04:34:39;98842.84;;;26.60;47.53
79230;BME280;68663;49.122;17.544;2023-07-24T04:37:04;98844.41;;;26.61;47.78
79230;BME280;68663;49.122;17.544;2023-07-24T04:39:29;98840.00;;;26.60;47.41
79230;BME280;68663;49.122;17.544;2023-07-24T04:41:55;98833.09;;;26.61;47.57
79230;BME280;68663;49.122;17.544;2023-07-24T04:44:20;98833.88;;;26.61;47.01
79230;BME280;68663;49.122;17.544;2023-07-24T04:46:46;98843.97;;;26.62;47.24
79230;BME280;68663;49.122;17.544;2023-07-24T04:49:11;98836.25;;;26.63;47.24
79230;BME280;68663;49.122;17.544;2023-07-24T04:51:36;98835.47;;;26.62;47.63
79230;BME280;68663;49.122;17.544;2023-07-24T04:54:02;98837.84;;;26.64;47.22
79230;BME280;68663;49.122;17.544;2023-07-24T04:56:28;98841.91;;;26.63;47.38
79230;BME280;68663;49.122;17.544;2023-07-24T04:58:53;98837.03;;;26.63;47.24
79230;BME280;68663;49.122;17.544;2023-07-24T05:01:19;98843.50;;;26.64;47.41
79230;BME280;68663;49.122;17.544;2023-07-24T05:03:44;98837.84;;;26.64;47.23
79230;BME280;68663;49.122;17.544;2023-07-24T05:06:10;98850.75;;;26.65;47.73
79230;BME280;68663;49.122;17.544;2023-07-24T05:08:35;98849.97;;;26.64;47.65
79230;BME280;68663;49.122;17.544;2023-07-24T05:11:01;98848.38;;;26.63;48.27
79230;BME280;68663;49.122;17.544;2023-07-24T05:13:26;98846.78;;;26.62;48.25
79230;BME280;68663;49.122;17.544;2023-07-24T05:15:52;98852.47;;;26.62;48.33
79230;BME280;68663;49.122;17.544;2023-07-24T05:18:18;98852.47;;;26.62;48.22
79230;BME280;68663;49.122;17.544;2023-07-24T05:20:47;98851.22;;;26.63;48.26
79230;BME280;68663;49.122;17.544;2023-07-24T05:23:13;98851.69;;;26.62;48.18
79230;BME280;68663;49.122;17.544;2023-07-24T05:25:39;98852.47;;;26.62;47.72
79230;BME280;68663;49.122;17.544;2023-07-24T05:28:05;98854.84;;;26.64;47.83
79230;BME280;68663;49.122;17.544;2023-07-24T05:30:30;98858.00;;;26.66;47.51
79230;BME280;68663;49.122;17.544;2023-07-24T05:32:56;98855.50;;;26.68;47.81
79230;BME280;68663;49.122;17.544;2023-07-24T05:35:21;98857.88;;;26.70;47.77
79230;BME280;68663;49.122;17.544;2023-07-24T05:37:47;98854.59;;;26.71;47.63
79230;BME280;68663;49.122;17.544;2023-07-24T05:40:12;98849.69;;;26.72;48.60
79230;BME280;68663;49.122;17.544;2023-07-24T05:42:38;98844.81;;;26.72;49.88
79230;BME280;68663;49.122;17.544;2023-07-24T05:45:07;98846.75;;;26.75;49.02
79230;BME280;68663;49.122;17.544;2023-07-24T05:47:33;98843.91;;;26.75;48.80
79230;BME280;68663;49.122;17.544;2023-07-24T05:49:59;98834.13;;;26.76;48.64
79230;BME280;68663;49.122;17.544;2023-07-24T05:52:24;98848.66;;;26.78;48.52
79230;BME280;68663;49.122;17.544;2023-07-24T05:54:49;98850.22;;;26.79;48.67
79230;BME280;68663;49.122;17.544;2023-07-24T05:57:15;98844.56;;;26.79;48.71
79230;BME280;68663;49.122;17.544;2023-07-24T05:59:40;98846.47;;;26.82;48.83
79230;BME280;68663;49.122;17.544;2023-07-24T06:02:06;98843.63;;;26.82;48.49
79230;BME280;68663;49.122;17.544;2023-07-24T06:04:32;98846.81;;;26.84;48.37
79230;BME280;68663;49.122;17.544;2023-07-24T06:06:58;98837.03;;;26.85;48.86
79230;BME280;68663;49.122;17.544;2023-07-24T06:09:24;98835.00;;;26.86;48.48
79230;BME280;68663;49.122;17.544;2023-07-24T06:11:49;98842.63;;;26.89;48.85
79230;BME280;68663;49.122;17.544;2023-07-24T06:14:14;98836.16;;;26.88;48.85
79230;BME280;68663;49.122;17.544;2023-07-24T06:16:40;98832.06;;;26.89;48.82
79230;BME280;68663;49.122;17.544;2023-07-24T06:19:05;98830.81;;;26.90;48.57
79230;BME280;68663;49.122;17.544;2023-07-24T06:21:31;98829.56;;;26.91;48.78
79230;BME280;68663;49.122;17.544;2023-07-24T06:23:56;98823.41;;;26.93;49.17
79230;BME280;68663;49.122;17.544;2023-07-24T06:26:22;98822.16;;;26.94;49.36
79230;BME280;68663;49.122;17.544;2023-07-24T06:28:47;98822.06;;;26.98;49.50
79230;BME280;68663;49.122;17.544;2023-07-24T06:31:12;98825.22;;;27.00;49.63
79230;BME280;68663;49.122;17.544;2023-07-24T06:33:38;98815.00;;;27.02;49.45
79230;BME280;68663;49.122;17.544;2023-07-24T06:36:03;98823.63;;;26.99;49.81
79230;BME280;68663;49.122;17.544;2023-07-24T06:38:29;98823.63;;;26.99;49.90
79230;BME280;68663;49.122;17.544;2023-07-24T06:40:54;98812.72;;;26.97;50.42
79230;BME280;68663;49.122;17.544;2023-07-24T06:43:20;98808.31;;;26.96;50.40
79230;BME280;68663;49.122;17.544;2023-07-24T06:45:45;98804.09;;;27.01;51.26
79230;BME280;68663;49.122;17.544;2023-07-24T06:48:11;98803.19;;;27.04;50.91
79230;BME280;68663;49.122;17.544;2023-07-24T06:50:36;98801.44;;;27.06;51.01
79230;BME280;68663;49.122;17.544;2023-07-24T06:53:02;98803.03;;;27.07;50.79
79230;BME280;68663;49.122;17.544;2023-07-24T06:55:27;98801.31;;;27.10;50.53
79230;BME280;68663;49.122;17.544;2023-07-24T06:57:52;98799.28;;;27.10;50.63
79230;BME280;68663;49.122;17.544;2023-07-24T07:00:18;98795.63;;;27.10;51.03
79230;BME280;68663;49.122;17.544;2023-07-24T07:02:44;98791.22;;;27.09;50.95
79230;BME280;68663;49.122;17.544;2023-07-24T07:05:09;98789.19;;;27.09;50.21
79230;BME280;68663;49.122;17.544;2023-07-24T07:07:35;98784.75;;;27.08;49.81
79230;BME280;68663;49.122;17.544;2023-07-24T07:10:00;98789.19;;;27.09;49.51
79230;BME280;68663;49.122;17.544;2023-07-24T07:12:26;98786.66;;;27.11;49.42
79230;BME280;68663;49.122;17.544;2023-07-24T07:14:51;98784.16;;;27.13;49.06
79230;BME280;68663;49.122;17.544;2023-07-24T07:17:16;98786.19;;;27.13;49.46
79230;BME280;68663;49.122;17.544;2023-07-24T07:19:42;98779.25;;;27.14;49.02
79230;BME280;68663;49.122;17.544;2023-07-24T07:22:07;98782.09;;;27.14;48.45
79230;BME280;68663;49.122;17.544;2023-07-24T07:24:32;98781.63;;;27.15;48.64
79230;BME280;68663;49.122;17.544;2023-07-24T07:26:58;98779.59;;;27.16;48.33
79230;BME280;68663;49.122;17.544;2023-07-24T07:29:23;98777.53;;;27.16;48.04
79230;BME280;68663;49.122;17.544;2023-07-24T07:31:49;98772.66;;;27.17;47.79
79230;BME280;68663;49.122;17.544;2023-07-24T07:34:14;98775.81;;;27.19;47.63
79230;BME280;68663;49.122;17.544;2023-07-24T07:36:40;98774.25;;;27.18;48.10
79230;BME280;68663;49.122;17.544;2023-07-24T07:39:05;98761.97;;;27.21;47.98
79230;BME280;68663;49.122;17.544;2023-07-24T07:41:31;98757.84;;;27.22;47.71
79230;BME280;68663;49.122;17.544;2023-07-24T07:43:57;98746.03;;;27.23;48.47
79230;BME280;68663;49.122;17.544;2023-07-24T07:46:22;98744.78;;;27.24;47.29
79230;BME280;68663;49.122;17.544;2023-07-24T07:48:48;98752.50;;;27.24;47.99
79230;BME280;68663;49.122;17.544;2023-07-24T07:51:14;98744.78;;;27.24;48.24
79230;BME280;68663;49.122;17.544;2023-07-24T07:53:39;98745.09;;;27.26;48.02
79230;BME280;68663;49.122;17.544;2023-07-24T07:56:05;98746.22;;;27.29;47.62
79230;BME280;68663;49.122;17.544;2023-07-24T07:58:30;98744.97;;;27.30;47.73
79230;BME280;68663;49.122;17.544;2023-07-24T08:00:56;98733.94;;;27.32;47.10
79230;BME280;68663;49.122;17.544;2023-07-24T08:03:21;98737.09;;;27.34;46.80
79230;BME280;68663;49.122;17.544;2023-07-24T08:05:47;98743.56;;;27.35;46.54
79230;BME280;68663;49.122;17.544;2023-07-24T08:08:13;98735.50;;;27.33;46.70
79230;BME280;68663;49.122;17.544;2023-07-24T08:10:39;98735.84;;;27.35;46.71
79230;BME280;68663;49.122;17.544;2023-07-24T08:13:05;98728.91;;;27.36;46.16
79230;BME280;68663;49.122;17.544;2023-07-24T08:15:36;98726.06;;;27.36;46.20
79230;BME280;68663;49.122;17.544;2023-07-24T08:18:06;98731.25;;;27.38;46.10
79230;BME280;68663;49.122;17.544;2023-07-24T08:20:34;98729.22;;;27.38;45.86
79230;BME280;68663;49.122;17.544;2023-07-24T08:23:00;98716.59;;;27.39;45.19
79230;BME280;68663;49.122;17.544;2023-07-24T08:25:25;98707.16;;;27.42;43.82
79230;BME280;68663;49.122;17.544;2023-07-24T08:27:50;98706.69;;;27.44;44.17
79230;BME280;68663;49.122;17.544;2023-07-24T08:30:17;98705.09;;;27.43;44.75
79230;BME280;68663;49.122;17.544;2023-07-24T08:32:43;98702.72;;;27.41;45.31
79230;BME280;68663;49.122;17.544;2023-07-24T08:35:08;98694.69;;;27.40;44.91
79230;BME280;68663;49.122;17.544;2023-07-24T08:37:34;98689.78;;;27.40;45.80
79230;BME280;68663;49.122;17.544;2023-07-24T08:40:00;98688.06;;;27.43;45.30
79230;BME280;68663;49.122;17.544;2023-07-24T08:42:25;98680.34;;;27.43;45.75
79230;BME280;68663;49.122;17.544;2023-07-24T08:44:52;98678.28;;;27.44;45.48
79230;BME280;68663;49.122;17.544;2023-07-24T08:47:18;98671.81;;;27.43;45.68
79230;BME280;68663;49.122;17.544;2023-07-24T08:49:45;98678.28;;;27.44;45.55
79230;BME280;68663;49.122;17.544;2023-07-24T08:52:11;98677.50;;;27.43;45.96
79230;BME280;68663;49.122;17.544;2023-07-24T08:54:37;98682.72;;;27.45;45.46
79230;BME280;68663;49.122;17.544;2023-07-24T08:57:06;98674.97;;;27.45;45.72
79230;BME280;68663;49.122;17.544;2023-07-24T08:59:31;98679.88;;;27.45;45.82
79230;BME280;68663;49.122;17.544;2023-07-24T09:01:57;98674.97;;;27.45;45.72
79230;BME280;68663;49.122;17.544;2023-07-24T09:04:24;98675.78;;;27.46;45.63
79230;BME280;68663;49.122;17.544;2023-07-24T09:06:49;98676.88;;;27.48;45.87
79230;BME280;68663;49.122;17.544;2023-07-24T09:09:16;98668.38;;;27.48;45.66
79230;BME280;68663;49.122;17.544;2023-07-24T09:11:52;98670.25;;;27.51;45.81
79230;BME280;68663;49.122;17.544;2023-07-24T09:14:25;98670.72;;;27.50;45.96
79230;BME280;68663;49.122;17.544;2023-07-24T09:19:33;98660.47;;;27.52;46.13
79230;BME280;68663;49.122;17.544;2023-07-24T09:22:12;98656.69;;;27.55;46.13
79230;BME280;68663;49.122;17.544;2023-07-24T09:24:52;98652.59;;;27.56;45.85
79230;BME280;68663;49.122;17.544;2023-07-24T09:27:17;98647.25;;;27.58;46.06
79230;BME280;68663;49.122;17.544;2023-07-24T09:29:43;98641.56;;;27.58;46.17
79230;BME280;68663;49.122;17.544;2023-07-24T09:32:29;98638.72;;;27.58;45.95
79230;BME280;68663;49.122;17.544;2023-07-24T09:34:56;98636.66;;;27.59;46.24
79230;BME280;68663;49.122;17.544;2023-07-24T09:37:33;98635.88;;;27.58;46.37
79230;BME280;68663;49.122;17.544;2023-07-24T09:39:59;98628.94;;;27.59;46.50
79230;BME280;68663;49.122;17.544;2023-07-24T09:42:42;98633.81;;;27.59;46.30
79230;BME280;68663;49.122;17.544;2023-07-24T09:45:09;98626.88;;;27.60;46.41
79230;BME280;68663;49.122;17.544;2023-07-24T09:47:34;98611.91;;;27.59;46.68
79230;BME280;68663;49.122;17.544;2023-07-24T09:50:03;98606.22;;;27.59;46.12
79230;BME280;68663;49.122;17.544;2023-07-24T09:52:29;98607.81;;;27.60;46.50
79230;BME280;68663;49.122;17.544;2023-07-24T09:57:32;98604.63;;;27.58;46.34
79230;BME280;68663;49.122;17.544;2023-07-24T09:59:58;98605.13;;;27.57;46.46
79230;BME280;68663;49.122;17.544;2023-07-24T10:02:24;98603.06;;;27.57;46.38
79230;BME280;68663;49.122;17.544;2023-07-24T10:04:49;98600.22;;;27.57;46.57
79230;BME280;68663;49.122;17.544;2023-07-24T10:07:15;98601.47;;;27.56;46.70
79230;BME280;68663;49.122;17.544;2023-07-24T10:09:43;98608.91;;;27.54;46.36
79230;BME280;68663;49.122;17.544;2023-07-24T10:12:09;98603.22;;;27.54;46.41
79230;BME280;68663;49.122;17.544;2023-07-24T10:14:36;98599.91;;;27.55;46.54
79230;BME280;68663;49.122;17.544;2023-07-24T10:17:02;98597.06;;;27.55;46.46
79230;BME280;68663;49.122;17.544;2023-07-24T10:19:41;98591.06;;;27.53;46.80
79230;BME280;68663;49.122;17.544;2023-07-24T10:22:17;98586.66;;;27.52;46.47
79230;BME280;68663;49.122;17.544;2023-07-24T10:24:46;98583.81;;;27.52;46.77
79230;BME280;68663;49.122;17.544;2023-07-24T10:27:12;98579.41;;;27.51;46.95
79230;BME280;68663;49.122;17.544;2023-07-24T10:32:19;98578.13;;;27.52;46.47
79230;BME280;68663;49.122;17.544;2023-07-24T10:34:44;98585.06;;;27.51;46.49
79230;BME280;68663;49.122;17.544;2023-07-24T10:37:11;98585.56;;;27.50;46.87
79230;BME280;68663;49.122;17.544;2023-07-24T10:39:40;98573.41;;;27.49;46.95
79230;BME280;68663;49.122;17.544;2023-07-24T10:42:10;98570.09;;;27.51;46.70
79230;BME280;68663;49.122;17.544;2023-07-24T10:44:36;98566.47;;;27.50;46.79
79230;BME280;68663;49.122;17.544;2023-07-24T10:47:02;98563.94;;;27.52;46.64
79230;BME280;68663;49.122;17.544;2023-07-24T10:49:28;98561.09;;;27.52;46.77
79230;BME280;68663;49.122;17.544;2023-07-24T10:51:57;98547.69;;;27.53;46.41
79230;BME280;68663;49.122;17.544;2023-07-24T10:54:23;98541.53;;;27.54;46.60
79230;BME280;68663;49.122;17.544;2023-07-24T10:56:49;98525.28;;;27.55;46.76
79230;BME280;68663;49.122;17.544;2023-07-24T10:59:14;98520.41;;;27.55;47.12
79230;BME280;68663;49.122;17.544;2023-07-24T11:01:40;98508.25;;;27.55;47.09
79230;BME280;68663;49.122;17.544;2023-07-24T11:04:06;98498.94;;;27.54;47.02
79230;BME280;68663;49.122;17.544;2023-07-24T11:06:32;98494.53;;;27.53;46.97
79230;BME280;68663;49.122;17.544;2023-07-24T11:08:59;98488.84;;;27.53;47.01
79230;BME280;68663;49.122;17.544;2023-07-24T11:11:31;98481.59;;;27.52;46.42
79230;BME280;68663;49.122;17.544;2023-07-24T11:13:58;98480.03;;;27.51;46.63
79230;BME280;68663;49.122;17.544;2023-07-24T11:16:23;98477.50;;;27.53;46.78
79230;BME280;68663;49.122;17.544;2023-07-24T11:18:50;98471.81;;;27.53;46.37
79230;BME280;68663;49.122;17.544;2023-07-24T11:21:19;98470.56;;;27.54;46.63
79230;BME280;68663;49.122;17.544;2023-07-24T11:23:54;98466.13;;;27.53;46.45
79230;BME280;68663;49.122;17.544;2023-07-24T11:26:24;98462.03;;;27.54;46.60
79230;BME280;68663;49.122;17.544;2023-07-24T11:28:51;98468.97;;;27.53;46.61
79230;BME280;68663;49.122;17.544;2023-07-24T11:31:17;98443.41;;;27.53;46.69
79230;BME280;68663;49.122;17.544;2023-07-24T11:33:46;98440.09;;;27.55;46.73
79230;BME280;68663;49.122;17.544;2023-07-24T11:36:12;98423.06;;;27.55;46.70
79230;BME280;68663;49.122;17.544;2023-07-24T11:38:38;98423.84;;;27.55;46.61
79230;BME280;68663;49.122;17.544;2023-07-24T11:41:04;98408.41;;;27.56;46.80
79230;BME280;68663;49.122;17.544;2023-07-24T11:43:29;98416.91;;;27.56;46.65
79230;BME280;68663;49.122;17.544;2023-07-24T11:45:55;98419.75;;;27.56;46.81
79230;BME280;68663;49.122;17.544;2023-07-24T11:48:22;98420.53;;;27.57;46.57
79230;BME280;68663;49.122;17.544;2023-07-24T11:50:50;98408.41;;;27.56;46.65
79230;BME280;68663;49.122;17.544;2023-07-24T11:53:28;98407.13;;;27.57;47.06
79230;BME280;68663;49.122;17.544;2023-07-24T11:55:58;98400.97;;;27.59;46.91
79230;BME280;68663;49.122;17.544;2023-07-24T11:58:28;98390.88;;;27.58;46.61
79230;BME280;68663;49.122;17.544;2023-07-24T12:00:53;98392.94;;;27.57;46.94
79230;BME280;68663;49.122;17.544;2023-07-24T12:03:25;98383.63;;;27.57;47.37
79230;BME280;68663;49.122;17.544;2023-07-24T12:05:51;98376.38;;;27.56;47.12
79230;BME280;68663;49.122;17.544;2023-07-24T12:08:19;98373.53;;;27.56;47.19
79230;BME280;68663;49.122;17.544;2023-07-24T12:10:46;98369.13;;;27.55;46.46
79230;BME280;68663;49.122;17.544;2023-07-24T12:13:12;98361.38;;;27.55;46.77
79230;BME280;68663;49.122;17.544;2023-07-24T12:15:37;98356.50;;;27.56;46.39
79230;BME280;68663;49.122;17.544;2023-07-24T12:18:04;98367.38;;;27.57;46.38
79230;BME280;68663;49.122;17.544;2023-07-24T12:20:30;98366.13;;;27.58;46.41
79230;BME280;68663;49.122;17.544;2023-07-24T12:22:56;98357.59;;;27.58;46.63
79230;BME280;68663;49.122;17.544;2023-07-24T12:25:22;98353.97;;;27.58;46.75
79230;BME280;68663;49.122;17.544;2023-07-24T12:27:48;98357.59;;;27.58;46.87
79230;BME280;68663;49.122;17.544;2023-07-24T12:30:14;98358.84;;;27.57;46.52
79230;BME280;68663;49.122;17.544;2023-07-24T12:32:39;98358.06;;;27.57;46.54
79230;BME280;68663;49.122;17.544;2023-07-24T12:35:05;98353.19;;;27.57;46.71
79230;BME280;68663;49.122;17.544;2023-07-24T12:37:31;98356.81;;;27.58;46.71
79230;BME280;68663;49.122;17.544;2023-07-24T12:39:56;98358.84;;;27.57;46.68
79230;BME280;68663;49.122;17.544;2023-07-24T12:42:22;98359.66;;;27.58;46.51
79230;BME280;68663;49.122;17.544;2023-07-24T12:44:48;98354.75;;;27.58;46.83
79230;BME280;68663;49.122;17.544;2023-07-24T12:47:14;98356.31;;;27.59;46.70
79230;BME280;68663;49.122;17.544;2023-07-24T12:49:40;98357.94;;;27.60;47.33
79230;BME280;68663;49.122;17.544;2023-07-24T12:52:05;98347.81;;;27.59;47.24
79230;BME280;68663;49.122;17.544;2023-07-24T12:54:31;98346.25;;;27.58;47.11
79230;BME280;68663;49.122;17.544;2023-07-24T12:56:57;98340.56;;;27.58;47.25